Time;durP1;ratioP1;P1;durP2;ratioP2;P2;SDS_P1;SDS_P2;PMS_P1;PMS_P2;Temp;Humidity;BMP_temperature;BMP_pressure;BME280_temperature;BME280_humidity;BME280_pressure;Samples;Min_cycle;Max_cycle;Signal;HPM_P1;HPM_P2
2022/12/10 00:01:28;;;;;;;18.50;10.95;;;2.70;99.90;;;;;;5020379;28;20064;-79
2022/12/10 00:03:55;;;;;;;14.50;8.52;;;2.70;99.90;;;;;;5020456;28;20025;-79
2022/12/10 00:06:23;;;;;;;20.13;11.82;;;2.70;99.90;;;;;;5020829;28;20029;-79
2022/12/10 00:08:50;;;;;;;20.25;11.82;;;2.70;99.90;;;;;;5038439;28;20025;-79
2022/12/10 00:11:17;;;;;;;17.52;11.32;;;2.70;99.90;;;;;;5020606;28;20385;-80
2022/12/10 00:13:44;;;;;;;22.15;11.35;;;2.70;99.90;;;;;;5039600;28;20469;-76
2022/12/10 00:16:12;;;;;;;18.80;11.27;;;2.70;99.90;;;;;;5022579;28;20034;-72
2022/12/10 00:18:38;;;;;;;22.95;12.55;;;2.70;99.90;;;;;;5019544;28;20389;-75
2022/12/10 00:21:10;;;;;;;22.50;11.77;;;2.70;99.90;;;;;;5019659;28;20027;-76
2022/12/10 00:23:36;;;;;;;19.70;12.25;;;2.70;99.90;;;;;;5020501;28;20417;-75
2022/12/10 00:26:10;;;;;;;18.55;11.52;;;2.80;99.90;;;;;;5038959;28;20029;-76
2022/12/10 00:28:36;;;;;;;18.95;11.52;;;2.70;99.90;;;;;;5022246;28;20029;-75
2022/12/10 00:31:07;;;;;;;21.27;12.55;;;2.80;99.90;;;;;;5023198;28;20105;-75
2022/12/10 00:33:33;;;;;;;21.13;13.02;;;2.80;99.90;;;;;;5022362;28;20049;-75
2022/12/10 00:36:27;;;;;;;19.33;11.70;;;2.80;99.90;;;;;;5022915;28;20038;-75
2022/12/10 00:38:53;;;;;;;17.58;10.52;;;2.80;99.90;;;;;;5040805;28;20089;-75
2022/12/10 00:41:19;;;;;;;21.02;12.25;;;2.80;99.90;;;;;;5043929;28;20033;-76
2022/12/10 00:43:45;;;;;;;18.90;11.70;;;2.80;99.90;;;;;;5026083;28;20033;-74
2022/12/10 00:46:12;;;;;;;18.75;11.57;;;2.80;99.90;;;;;;5042555;28;20030;-74
2022/12/10 00:48:38;;;;;;;21.05;11.60;;;2.70;99.90;;;;;;5024370;28;20052;-74
2022/12/10 00:51:10;;;;;;;17.33;11.25;;;2.90;99.90;;;;;;5042160;28;20022;-74
2022/12/10 00:53:37;;;;;;;17.63;10.55;;;2.70;99.90;;;;;;5023530;28;20030;-74
2022/12/10 00:56:04;;;;;;;17.38;10.18;;;2.70;99.90;;;;;;5022966;28;20495;-74
2022/12/10 00:58:32;;;;;;;16.05;10.05;;;2.70;99.90;;;;;;5040579;28;20022;-74
2022/12/10 01:01:18;;;;;;;18.98;10.40;;;2.70;99.90;;;;;;5019589;28;20385;-74
2022/12/10 01:03:45;;;;;;;16.63;10.63;;;2.70;99.90;;;;;;5019532;28;20082;-74
2022/12/10 01:06:28;;;;;;;15.18;9.88;;;2.70;99.90;;;;;;5037742;28;20045;-74
2022/12/10 01:08:56;;;;;;;16.52;10.52;;;2.70;99.90;;;;;;5021910;28;20030;-74
2022/12/10 01:11:26;;;;;;;18.15;10.63;;;2.70;99.90;;;;;;5021548;28;20032;-74
2022/12/10 01:13:52;;;;;;;18.63;10.45;;;2.70;99.90;;;;;;5039536;28;20029;-74
2022/12/10 01:16:20;;;;;;;15.63;9.77;;;2.70;99.90;;;;;;5021161;28;20085;-74
2022/12/10 01:18:46;;;;;;;16.90;10.05;;;2.80;99.90;;;;;;5021906;28;20029;-74
2022/12/10 01:21:14;;;;;;;16.90;9.80;;;2.70;99.90;;;;;;5021447;28;20059;-73
2022/12/10 01:23:41;;;;;;;17.15;9.77;;;2.80;99.90;;;;;;5023150;28;20032;-73
2022/12/10 01:26:19;;;;;;;14.52;9.73;;;2.80;99.90;;;;;;5041167;28;20052;-73
2022/12/10 01:28:46;;;;;;;15.67;9.43;;;2.80;99.90;;;;;;5023265;28;20466;-73
2022/12/10 01:31:17;;;;;;;15.13;9.63;;;2.80;99.90;;;;;;5040235;28;20590;-73
2022/12/10 01:33:43;;;;;;;13.68;9.10;;;2.80;99.90;;;;;;5021850;28;20049;-73
2022/12/10 01:36:15;;;;;;;14.45;9.93;;;2.80;99.90;;;;;;5039246;28;20041;-74
2022/12/10 01:38:41;;;;;;;15.52;9.73;;;2.80;99.90;;;;;;5040044;28;20481;-73
2022/12/10 01:41:12;;;;;;;14.52;9.05;;;2.80;99.90;;;;;;5022012;28;20075;-73
2022/12/10 01:44:04;;;;;;;14.07;8.98;;;2.80;99.90;;;;;;5039267;28;20017;-73
2022/12/10 01:46:33;;;;;;;15.85;9.13;;;2.80;99.90;;;;;;5021357;28;20120;-73
2022/12/10 01:49:01;;;;;;;14.45;9.23;;;2.90;99.90;;;;;;5021705;28;20354;-73
2022/12/10 01:51:30;;;;;;;18.58;10.27;;;2.80;99.90;;;;;;5039048;28;20029;-73
2022/12/10 01:53:56;;;;;;;;;;;2.80;99.90;;;;;;5040621;28;20029;-73
2022/12/10 01:56:23;;;;;;;13.95;9.23;;;2.80;99.90;;;;;;5037568;28;19976;-73
2022/12/10 01:58:51;;;;;;;15.40;9.27;;;2.80;99.90;;;;;;5038325;28;20036;-73
2022/12/10 02:01:35;;;;;;;13.33;8.97;;;2.80;99.90;;;;;;5021084;28;20026;-73
2022/12/10 02:04:36;;;;;;;13.82;9.23;;;2.80;99.90;;;;;;5038418;28;20260;-73
2022/12/10 02:07:04;;;;;;;13.32;9.27;;;2.80;99.90;;;;;;5020681;28;20026;-73
2022/12/10 02:09:45;;;;;;;17.00;10.48;;;2.80;99.90;;;;;;5038303;28;20398;-73
2022/12/10 02:12:16;;;;;;;19.25;9.50;;;2.80;99.90;;;;;;5020568;28;20041;-73
2022/12/10 02:15:01;;;;;;;12.43;8.75;;;2.80;99.90;;;;;;5036320;28;20461;-73
2022/12/10 02:17:42;;;;;;;14.20;9.80;;;2.80;99.90;;;;;;5019416;28;20038;-73
2022/12/10 02:20:14;;;;;;;15.48;9.85;;;2.80;99.90;;;;;;5034701;28;20458;-73
2022/12/10 02:22:56;;;;;;;14.52;9.77;;;2.80;99.90;;;;;;5017396;28;20025;-73
2022/12/10 02:25:43;;;;;;;15.65;10.05;;;2.80;99.90;;;;;;5036140;28;20112;-73
2022/12/10 02:28:30;;;;;;;17.05;11.10;;;2.80;99.90;;;;;;5021894;28;20112;-72
2022/12/10 02:30:57;;;;;;;14.98;9.55;;;2.80;99.90;;;;;;5038590;28;20025;-72
2022/12/10 02:33:24;;;;;;;16.30;9.98;;;2.80;99.90;;;;;;5038392;28;20386;-72
2022/12/10 02:35:51;;;;;;;17.50;10.90;;;2.80;99.90;;;;;;5038193;28;20026;-73
2022/12/10 02:38:27;;;;;;;15.43;9.88;;;2.90;99.90;;;;;;5037668;28;20147;-73
2022/12/10 02:40:58;;;;;;;18.00;11.55;;;2.80;99.90;;;;;;5037119;28;20048;-72
2022/12/10 02:43:27;;;;;;;16.33;10.82;;;2.80;99.90;;;;;;5037117;28;20032;-73
2022/12/10 02:45:54;;;;;;;18.52;11.05;;;2.80;99.90;;;;;;5021036;28;20437;-73
2022/12/10 02:48:20;;;;;;;16.30;10.65;;;2.80;99.90;;;;;;5037937;28;20021;-73
2022/12/10 02:50:46;;;;;;;17.88;11.13;;;2.80;99.90;;;;;;5036038;28;20473;-72
2022/12/10 02:53:11;;;;;;;16.60;10.98;;;2.80;99.90;;;;;;5037134;28;20033;-73
2022/12/10 02:56:04;;;;;;;17.15;10.88;;;2.80;99.90;;;;;;5037022;28;20053;-73
2022/12/10 02:58:39;;;;;;;16.67;11.02;;;2.80;99.90;;;;;;5019201;28;20116;-73
2022/12/10 03:01:19;;;;;;;18.00;11.07;;;2.80;99.90;;;;;;5019422;28;20026;-73
2022/12/10 03:03:52;;;;;;;17.45;10.95;;;2.80;99.90;;;;;;5020015;28;20033;-73
2022/12/10 03:06:32;;;;;;;17.70;11.00;;;2.80;99.90;;;;;;5019596;28;20056;-73
2022/12/10 03:09:17;;;;;;;18.13;10.98;;;2.80;99.90;;;;;;5041988;28;20100;-73
2022/12/10 03:11:45;;;;;;;19.05;11.35;;;2.80;99.90;;;;;;5040255;28;20025;-73
2022/12/10 03:14:21;;;;;;;15.80;10.50;;;2.80;99.90;;;;;;5023074;28;20030;-73
2022/12/10 03:16:57;;;;;;;16.10;9.57;;;2.80;99.90;;;;;;5040254;28;20072;-73
2022/12/10 03:19:48;;;;;;;15.98;10.40;;;2.80;99.90;;;;;;5039723;28;20025;-73
2022/12/10 03:22:19;;;;;;;18.13;10.25;;;2.80;99.90;;;;;;5029863;28;20037;-73
2022/12/10 03:24:44;;;;;;;16.85;11.00;;;2.80;99.90;;;;;;5040391;28;20029;-73
2022/12/10 03:27:13;;;;;;;17.83;10.57;;;2.80;99.90;;;;;;5039669;28;20026;-73
2022/12/10 03:29:47;;;;;;;19.10;11.00;;;2.80;99.90;;;;;;5039525;28;20028;-73
2022/12/10 03:32:14;;;;;;;20.02;11.75;;;2.80;99.90;;;;;;5022208;28;20022;-73
2022/12/10 03:34:41;;;;;;;16.75;10.68;;;2.80;99.90;;;;;;5024055;28;20120;-73
2022/12/10 03:37:07;;;;;;;16.23;10.48;;;2.80;99.90;;;;;;5021424;28;20037;-73
2022/12/10 03:39:33;;;;;;;17.38;10.95;;;2.80;99.90;;;;;;5038903;28;20028;-73
2022/12/10 03:41:59;;;;;;;19.35;11.77;;;2.80;99.90;;;;;;5021843;28;20151;-72
2022/12/10 03:44:34;;;;;;;15.80;10.82;;;2.80;99.90;;;;;;5026393;28;20236;-74
2022/12/10 03:47:04;;;;;;;17.90;11.35;;;2.80;99.90;;;;;;5027146;28;20063;-73
2022/12/10 03:49:30;;;;;;;18.63;11.02;;;2.80;99.90;;;;;;5044084;28;20037;-73
2022/12/10 03:51:55;;;;;;;18.92;11.50;;;2.80;99.90;;;;;;5025262;28;20531;-73
2022/12/10 03:54:22;;;;;;;18.27;11.00;;;2.80;99.90;;;;;;5024408;28;20080;-73
2022/12/10 03:56:48;;;;;;;18.40;11.23;;;2.80;99.90;;;;;;5043175;28;20026;-73
2022/12/10 03:59:13;;;;;;;20.63;11.15;;;2.80;99.90;;;;;;5041338;28;20048;-73
2022/12/10 04:01:40;;;;;;;18.17;11.80;;;2.80;99.90;;;;;;5024170;28;20033;-73
2022/12/10 04:04:06;;;;;;;20.85;11.90;;;2.80;99.90;;;;;;5023634;28;20033;-73
2022/12/10 04:06:31;;;;;;;17.35;10.95;;;2.80;99.90;;;;;;5023284;28;20056;-73
2022/12/10 04:08:57;;;;;;;18.25;12.30;;;2.70;99.90;;;;;;5040503;28;20044;-73
2022/12/10 04:11:23;;;;;;;21.85;12.68;;;2.70;99.90;;;;;;5039646;28;20363;-73
2022/12/10 04:16:33;;;;;;;22.58;13.30;;;2.80;99.90;;;;;;5039820;28;20064;-73
2022/12/10 04:19:09;;;;;;;19.40;12.15;;;2.80;99.90;;;;;;5019962;28;20384;-73
2022/12/10 04:27:11;;;;;;;22.30;12.95;;;2.70;99.90;;;;;;5041885;28;20045;-73
2022/12/10 04:29:37;;;;;;;25.02;14.55;;;2.70;99.90;;;;;;5039176;28;20021;-73
2022/12/10 04:32:03;;;;;;;21.77;12.85;;;2.70;99.90;;;;;;5022943;28;20114;-73
2022/12/10 04:34:29;;;;;;;20.33;12.43;;;2.80;99.90;;;;;;5040300;28;20022;-73
2022/12/10 04:37:00;;;;;;;21.90;12.48;;;2.90;99.90;;;;;;5039996;28;20068;-73
2022/12/10 04:39:25;;;;;;;21.02;12.32;;;2.80;99.90;;;;;;5039581;28;20034;-73
2022/12/10 04:41:51;;;;;;;21.95;13.68;;;2.80;99.90;;;;;;5038683;28;20028;-73
2022/12/10 04:44:18;;;;;;;22.13;13.32;;;2.80;99.90;;;;;;5041039;28;20026;-73
2022/12/10 04:46:44;;;;;;;20.80;12.30;;;2.80;99.90;;;;;;5039660;28;20401;-73
2022/12/10 04:49:10;;;;;;;23.35;13.35;;;2.80;99.90;;;;;;5021946;28;20401;-73
2022/12/10 04:51:36;;;;;;;23.38;13.18;;;2.90;99.90;;;;;;5039790;28;20029;-73
2022/12/10 04:54:02;;;;;;;22.38;13.30;;;2.90;99.90;;;;;;5040324;28;20061;-73
2022/12/10 04:56:28;;;;;;;20.60;12.88;;;2.90;99.90;;;;;;5021098;28;20460;-73
2022/12/10 04:58:56;;;;;;;23.67;13.77;;;2.80;99.90;;;;;;5021932;28;20066;-73
2022/12/10 05:01:21;;;;;;;25.75;14.30;;;2.90;99.90;;;;;;5022014;28;20030;-73
2022/12/10 05:03:47;;;;;;;22.33;13.23;;;2.90;99.90;;;;;;5020741;28;20052;-73
2022/12/10 05:06:15;;;;;;;21.10;12.85;;;2.90;99.90;;;;;;5020577;28;20030;-73
2022/12/10 05:08:41;;;;;;;22.13;13.50;;;2.90;99.90;;;;;;5020162;28;20025;-73
2022/12/10 05:11:12;;;;;;;22.88;13.32;;;2.90;99.90;;;;;;5019988;28;20030;-73
2022/12/10 05:13:39;;;;;;;23.25;13.75;;;2.80;99.90;;;;;;5036907;28;20022;-73
2022/12/10 05:16:07;;;;;;;21.95;13.02;;;2.90;99.90;;;;;;5037191;28;20037;-73
2022/12/10 05:18:33;;;;;;;22.70;14.07;;;2.90;99.90;;;;;;5019732;28;20030;-73
2022/12/10 05:21:00;;;;;;;22.17;14.10;;;2.90;99.90;;;;;;5037651;28;20021;-73
2022/12/10 05:23:29;;;;;;;23.65;14.18;;;2.90;99.90;;;;;;5037948;28;20061;-73
2022/12/10 05:26:05;;;;;;;25.33;13.35;;;2.90;99.90;;;;;;5039291;28;20029;-73
2022/12/10 05:28:36;;;;;;;28.25;15.70;;;2.80;99.90;;;;;;5020218;28;20121;-73
2022/12/10 05:31:01;;;;;;;26.52;13.48;;;2.80;99.90;;;;;;5018906;28;20032;-73
2022/12/10 05:33:27;;;;;;;28.00;15.45;;;2.80;99.90;;;;;;5037040;28;20041;-73
2022/12/10 05:35:54;;;;;;;28.38;14.98;;;2.80;99.90;;;;;;5038485;28;20025;-73
2022/12/10 05:38:20;;;;;;;26.65;14.93;;;2.80;99.90;;;;;;5020670;28;20032;-73
2022/12/10 05:40:46;;;;;;;28.00;15.75;;;2.80;99.90;;;;;;5019307;28;20021;-73
2022/12/10 05:43:11;;;;;;;27.38;15.88;;;2.80;99.90;;;;;;5036148;28;20176;-73
2022/12/10 05:45:37;;;;;;;28.30;14.98;;;2.80;99.90;;;;;;5038022;28;20024;-73
2022/12/10 05:48:03;;;;;;;29.00;15.27;;;2.80;99.90;;;;;;5019818;28;20032;-73
2022/12/10 05:50:30;;;;;;;27.98;15.07;;;2.70;99.90;;;;;;5037271;28;20025;-73
2022/12/10 05:52:56;;;;;;;26.20;15.63;;;2.70;99.90;;;;;;5037938;28;20021;-73
2022/12/10 05:55:21;;;;;;;25.58;15.15;;;2.80;99.90;;;;;;5037219;28;20037;-73
2022/12/10 05:57:47;;;;;;;29.98;15.98;;;2.80;99.90;;;;;;5037148;28;20036;-73
2022/12/10 06:00:13;;;;;;;27.40;15.30;;;2.80;99.90;;;;;;5037793;28;20021;-73
2022/12/10 06:02:39;;;;;;;26.98;15.48;;;2.80;99.90;;;;;;5038076;28;20026;-73
2022/12/10 06:05:05;;;;;;;27.77;16.23;;;2.80;99.90;;;;;;5035381;28;20049;-73
2022/12/10 06:07:30;;;;;;;30.45;15.48;;;2.80;99.90;;;;;;5037731;28;20029;-73
2022/12/10 06:09:56;;;;;;;27.17;15.48;;;2.80;99.90;;;;;;5037611;28;20477;-74
2022/12/10 06:12:22;;;;;;;33.45;17.48;;;2.80;99.90;;;;;;5036827;28;20026;-73
2022/12/10 06:14:47;;;;;;;27.80;15.70;;;2.80;99.90;;;;;;5035258;28;20021;-73
2022/12/10 06:17:14;;;;;;;31.13;16.67;;;2.70;99.90;;;;;;5035306;28;20045;-73
2022/12/10 06:19:40;;;;;;;30.63;17.15;;;2.70;99.90;;;;;;5018839;28;20075;-73
2022/12/10 06:22:05;;;;;;;30.67;16.65;;;2.70;99.90;;;;;;5037007;28;20026;-73
2022/12/10 06:24:31;;;;;;;30.10;16.92;;;2.70;99.90;;;;;;5019674;28;20034;-73
2022/12/10 06:26:57;;;;;;;32.70;16.65;;;2.80;99.90;;;;;;5038657;28;20436;-73
2022/12/10 06:29:23;;;;;;;31.15;16.48;;;2.70;99.90;;;;;;5019843;28;20120;-73
2022/12/10 06:31:48;;;;;;;31.83;16.63;;;2.80;99.90;;;;;;5039141;28;20060;-73
2022/12/10 06:34:14;;;;;;;27.70;15.40;;;2.80;99.90;;;;;;5019218;28;20065;-73
2022/12/10 06:36:40;;;;;;;30.00;16.65;;;2.80;99.90;;;;;;5019187;28;20049;-73
2022/12/10 06:39:05;;;;;;;31.83;16.35;;;2.80;99.90;;;;;;5017194;28;20092;-73
2022/12/10 06:41:31;;;;;;;26.27;14.85;;;2.80;99.90;;;;;;5019183;28;20548;-70
2022/12/10 06:43:58;;;;;;;27.33;15.55;;;2.70;99.90;;;;;;5025663;28;20038;-72
2022/12/10 06:46:25;;;;;;;32.58;16.17;;;2.80;99.90;;;;;;5012198;28;20038;-72
2022/12/10 06:48:50;;;;;;;30.23;15.00;;;2.80;99.90;;;;;;5014472;28;20025;-71
2022/12/10 06:51:17;;;;;;;31.88;16.52;;;2.80;99.90;;;;;;5012350;28;20044;-71
2022/12/10 06:53:43;;;;;;;29.65;15.63;;;2.80;99.90;;;;;;5012881;28;20026;-71
2022/12/10 06:56:14;;;;;;;31.48;16.08;;;2.80;99.90;;;;;;5009935;28;20038;-71
2022/12/10 06:58:41;;;;;;;29.42;15.75;;;2.80;99.90;;;;;;5028989;28;20053;-73
2022/12/10 07:01:20;;;;;;;27.20;15.25;;;2.80;99.90;;;;;;5026952;28;20022;-72
2022/12/10 07:03:49;;;;;;;32.33;17.13;;;2.80;99.90;;;;;;5014479;28;20061;-71
2022/12/10 07:06:15;;;;;;;32.00;16.02;;;2.80;99.90;;;;;;5011628;28;20026;-72
2022/12/10 07:08:41;;;;;;;32.78;16.40;;;2.80;99.90;;;;;;5006463;28;20026;-71
2022/12/10 07:11:09;;;;;;;31.88;15.75;;;2.90;99.90;;;;;;5026479;28;20540;-70
2022/12/10 07:13:35;;;;;;;32.75;17.13;;;2.80;99.90;;;;;;5008025;28;20517;-72
2022/12/10 07:16:01;;;;;;;29.50;15.88;;;2.80;99.90;;;;;;5005754;28;20370;-71
2022/12/10 07:18:27;;;;;;;29.85;16.50;;;2.80;99.90;;;;;;5003247;28;20029;-69
2022/12/10 07:20:53;;;;;;;29.77;16.83;;;2.80;99.90;;;;;;5022475;28;20024;-69
2022/12/10 07:23:19;;;;;;;30.40;15.80;;;2.70;99.90;;;;;;5007312;28;20030;-74
2022/12/10 07:25:45;;;;;;;33.88;17.02;;;2.70;99.90;;;;;;5021925;28;20022;-75
2022/12/10 07:28:11;;;;;;;28.58;15.55;;;2.70;99.90;;;;;;5003777;28;20061;-75
2022/12/10 07:30:37;;;;;;;29.52;15.40;;;2.70;99.90;;;;;;5003981;28;20026;-75
2022/12/10 07:33:03;;;;;;;27.70;15.35;;;2.70;99.90;;;;;;5004065;28;20498;-75
2022/12/10 07:35:28;;;;;;;28.45;15.25;;;2.70;99.90;;;;;;5020768;28;20033;-74
2022/12/10 07:37:54;;;;;;;31.77;15.85;;;2.70;99.90;;;;;;5020061;28;20109;-73
2022/12/10 07:40:20;;;;;;;29.15;16.55;;;2.70;99.90;;;;;;5021327;28;20046;-74
2022/12/10 07:42:45;;;;;;;30.27;16.10;;;2.80;99.90;;;;;;5021343;28;20026;-72
2022/12/10 07:45:11;;;;;;;34.92;17.92;;;2.80;99.90;;;;;;5003445;28;20348;-73
2022/12/10 07:47:38;;;;;;;30.10;14.95;;;2.80;99.90;;;;;;5003171;28;20026;-75
2022/12/10 07:50:05;;;;;;;31.55;16.10;;;2.80;99.90;;;;;;5003270;28;20036;-74
2022/12/10 07:52:30;;;;;;;26.23;14.02;;;2.70;99.90;;;;;;5003005;28;20036;-73
2022/12/10 07:54:56;;;;;;;29.77;14.85;;;2.80;99.90;;;;;;5003620;28;20117;-72
2022/12/10 07:57:21;;;;;;;32.70;14.98;;;2.70;99.90;;;;;;5002078;28;20034;-71
2022/12/10 07:59:47;;;;;;;28.58;15.43;;;2.80;99.90;;;;;;5002320;28;20026;-72
2022/12/10 08:02:13;;;;;;;32.13;15.50;;;2.80;99.90;;;;;;5019558;28;20057;-70
2022/12/10 08:04:38;;;;;;;29.38;14.68;;;2.90;99.90;;;;;;5019289;28;20032;-71
2022/12/10 08:07:04;;;;;;;30.60;15.73;;;2.90;99.90;;;;;;5019569;28;20072;-71
2022/12/10 08:09:30;;;;;;;30.38;15.23;;;2.90;99.90;;;;;;5019245;28;20427;-73
2022/12/10 08:11:56;;;;;;;29.08;15.10;;;2.90;99.90;;;;;;5017109;28;20057;-59
2022/12/10 08:14:21;;;;;;;28.83;15.07;;;3.00;99.90;;;;;;5016119;28;20037;-59
2022/12/10 08:16:47;;;;;;;33.05;14.35;;;3.10;99.90;;;;;;5019563;28;20045;-78
2022/12/10 08:19:13;;;;;;;34.38;16.17;;;3.10;99.90;;;;;;5004865;28;20033;-78
2022/12/10 08:21:38;;;;;;;30.00;15.40;;;3.20;99.90;;;;;;5003256;28;20030;-78
2022/12/10 08:24:04;;;;;;;28.02;14.45;;;3.10;99.90;;;;;;5021253;28;20030;-78
2022/12/10 08:26:32;;;;;;;29.20;15.00;;;3.10;99.90;;;;;;5004700;28;20026;-78
2022/12/10 08:28:59;;;;;;;30.25;14.35;;;3.10;99.90;;;;;;5004953;28;20053;-79
2022/12/10 08:31:26;;;;;;;31.85;16.05;;;3.10;99.90;;;;;;5005083;28;20030;-78
2022/12/10 08:33:52;;;;;;;32.70;15.38;;;3.20;99.90;;;;;;5018340;28;20440;-77
2022/12/10 08:36:18;;;;;;;27.58;14.20;;;3.20;99.90;;;;;;5023349;28;20040;-77
2022/12/10 08:38:45;;;;;;;30.55;15.50;;;3.20;99.90;;;;;;5022938;28;20504;-77
2022/12/10 08:41:16;;;;;;;28.95;15.00;;;3.20;99.90;;;;;;5039214;28;20032;-77
2022/12/10 08:43:42;;;;;;;33.78;17.23;;;3.10;99.90;;;;;;5023597;28;20031;-76
2022/12/10 08:46:08;;;;;;;31.77;16.55;;;3.10;99.90;;;;;;5021822;28;20119;-77
2022/12/10 08:48:35;;;;;;;29.08;15.80;;;3.10;99.90;;;;;;5039492;28;20537;-76
2022/12/10 08:51:02;;;;;;;32.63;17.50;;;3.10;99.90;;;;;;5040885;28;20382;-79
2022/12/10 08:53:28;;;;;;;31.85;16.05;;;3.10;99.90;;;;;;5042244;28;20022;-76
2022/12/10 08:55:54;;;;;;;36.00;16.73;;;3.10;99.90;;;;;;5039125;28;20116;-76
2022/12/10 08:58:20;;;;;;;28.95;15.52;;;3.10;99.90;;;;;;5038432;28;20033;-77
2022/12/10 09:00:48;;;;;;;33.58;16.58;;;3.10;99.90;;;;;;5020128;28;20128;-80
2022/12/10 09:03:14;;;;;;;34.63;17.50;;;3.00;99.90;;;;;;5037150;28;20076;-75
2022/12/10 09:05:40;;;;;;;30.98;15.88;;;3.00;99.90;;;;;;5019136;28;20381;-77
2022/12/10 09:08:06;;;;;;;35.05;16.35;;;3.10;99.90;;;;;;5021511;28;20389;-77
2022/12/10 09:10:31;;;;;;;37.55;17.50;;;3.10;99.90;;;;;;5037980;28;20029;-77
2022/12/10 09:12:57;;;;;;;35.13;17.98;;;3.10;99.90;;;;;;5037538;28;20030;-77
2022/12/10 09:15:23;;;;;;;34.10;17.55;;;3.20;99.90;;;;;;5035061;28;20045;-76
2022/12/10 09:17:48;;;;;;;44.17;19.10;;;3.20;99.90;;;;;;5036125;28;20056;-77
2022/12/10 09:20:15;;;;;;;36.97;17.60;;;3.20;99.90;;;;;;5038088;28;20021;-78
2022/12/10 09:22:40;;;;;;;37.13;16.98;;;3.20;99.90;;;;;;5021429;28;20025;-79
2022/12/10 09:25:09;;;;;;;37.88;18.58;;;3.20;99.90;;;;;;5020921;28;20036;-78
2022/12/10 09:27:35;;;;;;;36.35;16.77;;;3.30;99.90;;;;;;5025285;28;20386;-78
2022/12/10 09:30:01;;;;;;;36.55;18.10;;;3.30;99.90;;;;;;5042117;28;20030;-78
2022/12/10 09:32:27;;;;;;;36.13;18.40;;;3.30;99.90;;;;;;5029430;28;20058;-79
2022/12/10 09:34:53;;;;;;;35.45;17.80;;;3.30;99.90;;;;;;5038883;28;20060;-76
2022/12/10 09:37:19;;;;;;;37.83;18.77;;;3.40;99.90;;;;;;5038096;28;20033;-74
2022/12/10 09:39:45;;;;;;;39.55;19.13;;;3.40;99.90;;;;;;5037828;28;20040;-73
2022/12/10 09:42:10;;;;;;;35.38;18.02;;;3.30;99.90;;;;;;5038582;28;20048;-78
2022/12/10 09:45:05;;;;;;;34.90;18.73;;;3.30;99.90;;;;;;5020433;28;20037;-76
2022/12/10 09:47:39;;;;;;;38.60;18.92;;;3.30;99.90;;;;;;5019554;28;20086;-75
2022/12/10 09:50:28;;;;;;;36.50;17.52;;;3.30;99.90;;;;;;5019113;28;20097;-77
2022/12/10 09:52:55;;;;;;;40.97;19.38;;;3.30;99.90;;;;;;5018681;28;20034;-74
2022/12/10 09:55:35;;;;;;;34.28;17.13;;;3.30;99.90;;;;;;5018790;28;20033;-73
2022/12/10 09:58:04;;;;;;;37.17;17.48;;;3.30;99.90;;;;;;5036270;28;20033;-76
2022/12/10 10:00:29;;;;;;;34.08;17.55;;;3.30;99.90;;;;;;5019555;28;20052;-78
2022/12/10 10:03:01;;;;;;;36.53;18.52;;;3.30;99.90;;;;;;5037622;28;20450;-77
2022/12/10 10:05:30;;;;;;;39.03;19.35;;;3.40;99.90;;;;;;5037113;28;20026;-76
2022/12/10 10:08:02;;;;;;;38.75;19.02;;;3.40;99.90;;;;;;5037325;28;20434;-76
2022/12/10 10:10:32;;;;;;;35.92;19.60;;;3.40;99.90;;;;;;5019175;28;20030;-76
2022/12/10 10:13:14;;;;;;;34.03;17.98;;;3.50;99.90;;;;;;5019607;28;20108;-77
2022/12/10 10:15:42;;;;;;;36.22;17.88;;;3.40;99.90;;;;;;5035627;28;20120;-76
2022/12/10 10:18:20;;;;;;;34.22;17.45;;;3.40;99.90;;;;;;5019669;28;20040;-77
2022/12/10 10:20:46;;;;;;;32.03;17.48;;;3.50;99.90;;;;;;5036897;28;20033;-73
2022/12/10 10:23:14;;;;;;;40.00;17.67;;;3.50;99.90;;;;;;5018556;28;20071;-74
2022/12/10 10:25:41;;;;;;;;;;;3.50;99.90;;;;;;5038617;28;20052;-75
2022/12/10 10:28:12;;;;;;;34.75;17.67;;;3.50;99.90;;;;;;5037747;28;19905;-74
2022/12/10 10:30:42;;;;;;;32.60;18.02;;;3.50;99.90;;;;;;5019011;28;20461;-76
2022/12/10 10:33:10;;;;;;;36.53;18.75;;;3.50;99.90;;;;;;5037305;28;20092;-75
2022/12/10 10:35:47;;;;;;;35.83;19.05;;;3.50;99.90;;;;;;5020913;28;20029;-75
2022/12/10 10:38:36;;;;;;;39.60;18.48;;;3.40;99.90;;;;;;5041924;28;20030;-76
2022/12/10 10:41:04;;;;;;;37.08;18.10;;;3.40;99.90;;;;;;5042414;28;20484;-76
2022/12/10 10:43:41;;;;;;;36.25;18.45;;;3.30;99.90;;;;;;5042250;28;20029;-75
2022/12/10 10:46:23;;;;;;;37.58;18.45;;;3.30;99.90;;;;;;5038297;28;20083;-76
2022/12/10 10:48:49;;;;;;;37.88;18.38;;;3.30;99.90;;;;;;5021883;28;20025;-75
2022/12/10 10:51:20;;;;;;;38.30;19.48;;;3.20;99.90;;;;;;5020483;28;20026;-74
2022/12/10 10:53:54;;;;;;;36.80;17.88;;;3.20;99.90;;;;;;5038289;28;20026;-74
2022/12/10 10:56:38;;;;;;;39.45;19.35;;;3.20;99.90;;;;;;5020468;28;20573;-74
2022/12/10 10:59:16;;;;;;;34.33;17.80;;;3.20;99.90;;;;;;5022191;28;20052;-74
2022/12/10 11:01:48;;;;;;;38.47;18.95;;;3.30;99.90;;;;;;5022198;28;20025;-74
2022/12/10 11:04:29;;;;;;;42.17;19.58;;;3.30;99.90;;;;;;5021287;28;20029;-74
2022/12/10 11:07:00;;;;;;;39.70;18.52;;;3.40;99.90;;;;;;5038705;28;20088;-74
2022/12/10 11:09:29;;;;;;;38.55;19.63;;;3.40;99.90;;;;;;5039013;28;20025;-74
2022/12/10 11:12:03;;;;;;;39.35;18.90;;;3.40;99.90;;;;;;5038374;28;20076;-74
2022/12/10 11:14:33;;;;;;;46.97;20.10;;;3.40;99.90;;;;;;5038979;28;20034;-74
2022/12/10 11:17:18;;;;;;;39.72;19.88;;;3.50;99.90;;;;;;5018703;28;20037;-74
2022/12/10 11:20:18;;;;;;;42.80;21.67;;;3.50;99.90;;;;;;5021112;28;20029;-74
2022/12/10 11:22:50;;;;;;;43.65;19.70;;;3.60;99.90;;;;;;5033052;28;20038;-74
2022/12/10 11:25:17;;;;;;;38.92;19.65;;;3.50;99.90;;;;;;5038206;28;20080;-74
2022/12/10 11:27:55;;;;;;;39.17;19.40;;;3.50;99.90;;;;;;5020593;28;20040;-74
2022/12/10 11:30:23;;;;;;;41.50;20.13;;;3.50;99.90;;;;;;5024022;28;20029;-74
2022/12/10 11:33:01;;;;;;;42.70;20.23;;;3.60;99.90;;;;;;5019195;28;20058;-74
2022/12/10 11:35:48;;;;;;;38.92;19.13;;;3.70;99.90;;;;;;5022532;28;20042;-74
2022/12/10 11:38:33;;;;;;;38.08;19.92;;;3.80;99.90;;;;;;5003869;28;20041;-74
2022/12/10 11:41:21;;;;;;;37.30;18.95;;;3.90;99.90;;;;;;5004338;28;20026;-75
2022/12/10 11:44:13;;;;;;;39.27;17.60;;;3.90;99.90;;;;;;5021252;28;20081;-74
2022/12/10 11:47:01;;;;;;;40.80;19.15;;;3.80;99.90;;;;;;4964691;28;20277;-74
2022/12/10 11:49:32;;;;;;;36.85;18.52;;;3.80;99.90;;;;;;5003592;28;20116;-74
2022/12/10 11:52:02;;;;;;;40.15;19.85;;;3.90;99.90;;;;;;5001605;28;20030;-75
2022/12/10 11:54:49;;;;;;;38.25;18.40;;;3.90;99.90;;;;;;5021838;28;20022;-75
2022/12/10 11:57:20;;;;;;;40.08;20.38;;;3.90;99.90;;;;;;5006068;28;20057;-74
2022/12/10 12:00:05;;;;;;;39.28;20.52;;;3.80;99.90;;;;;;5025181;28;20030;-74
2022/12/10 12:03:06;;;;;;;39.63;19.00;;;3.70;99.90;;;;;;5003120;28;20085;-74
2022/12/10 12:05:40;;;;;;;46.08;19.95;;;3.70;99.90;;;;;;4941387;29;20388;-75
2022/12/10 12:08:58;;;;;;;39.47;19.30;;;3.70;99.90;;;;;;5009327;28;20137;-74
2022/12/10 12:11:27;;;;;;;41.58;20.30;;;3.60;99.90;;;;;;4984653;28;20481;-74
2022/12/10 12:14:02;;;;;;;40.10;20.20;;;3.60;99.90;;;;;;5019435;28;20026;-75
2022/12/10 12:16:35;;;;;;;42.08;20.25;;;3.50;99.90;;;;;;5019788;28;20381;-75
2022/12/10 12:19:24;;;;;;;40.15;20.45;;;3.50;99.90;;;;;;5002599;28;20056;-75
2022/12/10 12:21:50;;;;;;;44.78;19.52;;;3.50;99.90;;;;;;5020019;28;20033;-74
2022/12/10 12:24:31;;;;;;;41.35;19.13;;;3.50;99.90;;;;;;5001955;28;20037;-75
2022/12/10 12:27:16;;;;;;;44.28;19.80;;;3.50;99.90;;;;;;5019524;28;20061;-74
2022/12/10 12:29:46;;;;;;;42.25;19.23;;;3.60;99.90;;;;;;5002458;28;20034;-75
2022/12/10 12:32:24;;;;;;;41.72;20.13;;;3.60;99.90;;;;;;5002460;28;20026;-74
2022/12/10 12:35:01;;;;;;;41.38;19.42;;;3.60;99.90;;;;;;5017288;28;20069;-74
2022/12/10 12:37:40;;;;;;;39.92;20.08;;;3.60;99.90;;;;;;5018484;28;20030;-75
2022/12/10 12:40:21;;;;;;;40.47;19.95;;;3.60;99.90;;;;;;5016293;28;20355;-74
2022/12/10 12:42:55;;;;;;;43.88;20.30;;;3.60;99.90;;;;;;5022894;28;20026;-75
2022/12/10 12:45:43;;;;;;;41.58;20.25;;;3.60;99.90;;;;;;5020030;28;20449;-75
2022/12/10 12:48:30;;;;;;;42.27;19.83;;;3.60;99.90;;;;;;5038814;28;20124;-74
2022/12/10 12:51:01;;;;;;;38.40;19.50;;;3.70;99.90;;;;;;5020653;28;20375;-74
2022/12/10 12:53:27;;;;;;;39.35;19.08;;;3.70;99.90;;;;;;5020609;28;20115;-74
2022/12/10 12:55:56;;;;;;;38.42;18.77;;;3.70;99.90;;;;;;5020142;28;20416;-76
2022/12/10 12:58:34;;;;;;;36.83;18.40;;;3.70;99.90;;;;;;5038454;28;20079;-75
2022/12/10 13:01:26;;;;;;;34.90;17.13;;;3.70;99.90;;;;;;5020695;28;20033;-75
2022/12/10 13:03:53;;;;;;;41.35;18.95;;;3.60;99.90;;;;;;5021845;28;20113;-75